sensor_id;sensor_type;location;lat;lon;timestamp;P1;durP1;ratioP1;P2;durP2;ratioP2
22378;SDS011;11357;49.990;7.370;2023-04-25T00:00:11;1999.90;;;999.90;;
22378;SDS011;11357;49.990;7.370;2023-04-25T00:02:39;1999.90;;;999.90;;
22378;SDS011;11357;49.990;7.370;2023-04-25T00:05:05;1999.90;;;999.90;;
22378;SDS011;11357;49.990;7.370;2023-04-25T00:07:31;1999.90;;;999.90;;
22378;SDS011;11357;49.990;7.370;2023-04-25T00:09:57;1999.90;;;999.90;;
22378;SDS011;11357;49.990;7.370;2023-04-25T00:12:23;1999.90;;;999.90;;
22378;SDS011;11357;49.990;7.370;2023-04-25T00:14:49;1999.90;;;999.90;;
22378;SDS011;11357;49.990;7.370;2023-04-25T00:17:15;1999.90;;;999.90;;
22378;SDS011;11357;49.990;7.370;2023-04-25T00:19:44;1999.90;;;999.90;;
22378;SDS011;11357;49.990;7.370;2023-04-25T00:22:11;1806.20;;;798.30;;
22378;SDS011;11357;49.990;7.370;2023-04-25T00:24:38;1999.90;;;999.90;;
22378;SDS011;11357;49.990;7.370;2023-04-25T00:27:03;1999.90;;;999.90;;
22378;SDS011;11357;49.990;7.370;2023-04-25T00:29:29;1999.90;;;999.90;;
22378;SDS011;11357;49.990;7.370;2023-04-25T00:31:55;1999.90;;;999.90;;
22378;SDS011;11357;49.990;7.370;2023-04-25T00:34:20;1999.90;;;999.90;;
22378;SDS011;11357;49.990;7.370;2023-04-25T00:36:46;1999.90;;;999.90;;
22378;SDS011;11357;49.990;7.370;2023-04-25T00:39:12;1999.90;;;999.90;;
22378;SDS011;11357;49.990;7.370;2023-04-25T00:41:38;1999.90;;;999.90;;
22378;SDS011;11357;49.990;7.370;2023-04-25T00:44:04;1999.90;;;999.90;;
22378;SDS011;11357;49.990;7.370;2023-04-25T00:46:32;1999.90;;;999.90;;
22378;SDS011;11357;49.990;7.370;2023-04-25T00:48:57;1999.90;;;999.90;;
22378;SDS011;11357;49.990;7.370;2023-04-25T00:51:23;1999.90;;;999.90;;
22378;SDS011;11357;49.990;7.370;2023-04-25T00:53:51;1999.90;;;999.90;;
22378;SDS011;11357;49.990;7.370;2023-04-25T00:56:17;1999.90;;;999.90;;
22378;SDS011;11357;49.990;7.370;2023-04-25T00:58:43;1999.90;;;999.90;;
22378;SDS011;11357;49.990;7.370;2023-04-25T01:01:10;1999.90;;;999.90;;
22378;SDS011;11357;49.990;7.370;2023-04-25T01:03:37;1999.90;;;999.90;;
22378;SDS011;11357;49.990;7.370;2023-04-25T01:06:12;1999.90;;;999.90;;
22378;SDS011;11357;49.990;7.370;2023-04-25T01:08:38;1999.90;;;999.90;;
22378;SDS011;11357;49.990;7.370;2023-04-25T01:11:04;1999.90;;;999.90;;
22378;SDS011;11357;49.990;7.370;2023-04-25T01:13:30;1999.90;;;999.90;;
22378;SDS011;11357;49.990;7.370;2023-04-25T01:15:58;1999.90;;;999.90;;
22378;SDS011;11357;49.990;7.370;2023-04-25T01:18:24;1999.90;;;999.90;;
22378;SDS011;11357;49.990;7.370;2023-04-25T01:20:53;1999.90;;;999.90;;
22378;SDS011;11357;49.990;7.370;2023-04-25T01:23:20;1999.90;;;999.90;;
22378;SDS011;11357;49.990;7.370;2023-04-25T01:25:50;1999.90;;;999.90;;
22378;SDS011;11357;49.990;7.370;2023-04-25T01:28:16;1999.90;;;999.90;;
22378;SDS011;11357;49.990;7.370;2023-04-25T01:30:42;1999.90;;;999.90;;
22378;SDS011;11357;49.990;7.370;2023-04-25T01:33:08;1999.90;;;999.90;;
22378;SDS011;11357;49.990;7.370;2023-04-25T01:35:35;1999.90;;;999.90;;
22378;SDS011;11357;49.990;7.370;2023-04-25T01:38:00;1999.90;;;999.90;;
22378;SDS011;11357;49.990;7.370;2023-04-25T01:40:26;1999.90;;;999.90;;
22378;SDS011;11357;49.990;7.370;2023-04-25T01:42:53;1999.90;;;999.90;;
22378;SDS011;11357;49.990;7.370;2023-04-25T01:45:19;1999.90;;;999.90;;
22378;SDS011;11357;49.990;7.370;2023-04-25T01:47:45;1999.90;;;999.90;;
22378;SDS011;11357;49.990;7.370;2023-04-25T01:50:16;1999.90;;;999.90;;
22378;SDS011;11357;49.990;7.370;2023-04-25T01:52:43;1999.90;;;999.90;;
22378;SDS011;11357;49.990;7.370;2023-04-25T01:55:09;1999.90;;;999.90;;
22378;SDS011;11357;49.990;7.370;2023-04-25T01:57:35;1999.90;;;999.90;;
22378;SDS011;11357;49.990;7.370;2023-04-25T02:00:02;1999.90;;;999.90;;
22378;SDS011;11357;49.990;7.370;2023-04-25T02:02:29;1999.90;;;999.90;;
22378;SDS011;11357;49.990;7.370;2023-04-25T02:04:55;1999.90;;;999.90;;
22378;SDS011;11357;49.990;7.370;2023-04-25T02:07:21;1999.90;;;999.90;;
22378;SDS011;11357;49.990;7.370;2023-04-25T02:09:47;1999.90;;;999.90;;
22378;SDS011;11357;49.990;7.370;2023-04-25T02:12:13;1999.90;;;999.90;;
22378;SDS011;11357;49.990;7.370;2023-04-25T02:14:39;1999.90;;;999.90;;
22378;SDS011;11357;49.990;7.370;2023-04-25T02:17:04;1999.90;;;999.90;;
22378;SDS011;11357;49.990;7.370;2023-04-25T02:19:30;1999.90;;;999.90;;
22378;SDS011;11357;49.990;7.370;2023-04-25T02:21:56;1999.90;;;999.90;;
22378;SDS011;11357;49.990;7.370;2023-04-25T02:24:23;1999.90;;;999.90;;
22378;SDS011;11357;49.990;7.370;2023-04-25T02:26:48;1999.90;;;999.90;;
22378;SDS011;11357;49.990;7.370;2023-04-25T02:29:14;1999.90;;;999.90;;
22378;SDS011;11357;49.990;7.370;2023-04-25T02:31:40;1999.90;;;999.90;;
22378;SDS011;11357;49.990;7.370;2023-04-25T02:34:06;1999.90;;;999.90;;
22378;SDS011;11357;49.990;7.370;2023-04-25T02:36:32;1999.90;;;999.90;;
22378;SDS011;11357;49.990;7.370;2023-04-25T02:39:00;1999.90;;;999.90;;
22378;SDS011;11357;49.990;7.370;2023-04-25T02:41:27;1999.90;;;999.90;;
22378;SDS011;11357;49.990;7.370;2023-04-25T02:43:53;1999.90;;;999.90;;
22378;SDS011;11357;49.990;7.370;2023-04-25T02:46:19;1999.90;;;999.90;;
22378;SDS011;11357;49.990;7.370;2023-04-25T02:48:45;1999.90;;;999.90;;
22378;SDS011;11357;49.990;7.370;2023-04-25T02:51:11;1999.90;;;999.90;;
22378;SDS011;11357;49.990;7.370;2023-04-25T02:53:37;1999.90;;;999.90;;
22378;SDS011;11357;49.990;7.370;2023-04-25T02:56:02;1999.90;;;999.90;;
22378;SDS011;11357;49.990;7.370;2023-04-25T02:58:28;1999.90;;;999.90;;
22378;SDS011;11357;49.990;7.370;2023-04-25T03:00:54;1999.90;;;999.90;;
22378;SDS011;11357;49.990;7.370;2023-04-25T03:03:20;1999.90;;;999.90;;
22378;SDS011;11357;49.990;7.370;2023-04-25T03:05:49;1999.90;;;999.90;;
22378;SDS011;11357;49.990;7.370;2023-04-25T03:08:16;1999.90;;;999.90;;
22378;SDS011;11357;49.990;7.370;2023-04-25T03:10:42;1999.90;;;999.90;;
22378;SDS011;11357;49.990;7.370;2023-04-25T03:13:08;1999.90;;;999.90;;
22378;SDS011;11357;49.990;7.370;2023-04-25T03:15:34;1999.90;;;999.90;;
22378;SDS011;11357;49.990;7.370;2023-04-25T03:18:01;1999.90;;;999.90;;
22378;SDS011;11357;49.990;7.370;2023-04-25T03:20:27;1999.90;;;999.90;;
22378;SDS011;11357;49.990;7.370;2023-04-25T03:22:53;1999.90;;;877.33;;
22378;SDS011;11357;49.990;7.370;2023-04-25T03:25:18;1999.90;;;865.90;;
22378;SDS011;11357;49.990;7.370;2023-04-25T03:27:44;1996.90;;;869.97;;
22378;SDS011;11357;49.990;7.370;2023-04-25T03:30:10;1968.77;;;830.90;;
22378;SDS011;11357;49.990;7.370;2023-04-25T03:32:36;1999.90;;;999.90;;
22378;SDS011;11357;49.990;7.370;2023-04-25T03:35:02;1999.90;;;999.90;;
22378;SDS011;11357;49.990;7.370;2023-04-25T03:37:28;1999.90;;;999.90;;
22378;SDS011;11357;49.990;7.370;2023-04-25T03:39:54;1999.90;;;999.90;;
22378;SDS011;11357;49.990;7.370;2023-04-25T03:42:19;1999.90;;;999.90;;
22378;SDS011;11357;49.990;7.370;2023-04-25T03:44:47;1999.90;;;999.90;;
22378;SDS011;11357;49.990;7.370;2023-04-25T03:47:14;1999.90;;;999.90;;
22378;SDS011;11357;49.990;7.370;2023-04-25T03:49:41;1999.90;;;999.90;;
22378;SDS011;11357;49.990;7.370;2023-04-25T03:52:07;1999.90;;;999.90;;
22378;SDS011;11357;49.990;7.370;2023-04-25T03:54:33;1999.90;;;999.90;;
22378;SDS011;11357;49.990;7.370;2023-04-25T03:56:58;1999.90;;;999.90;;
22378;SDS011;11357;49.990;7.370;2023-04-25T03:59:24;1999.90;;;999.90;;
22378;SDS011;11357;49.990;7.370;2023-04-25T04:01:51;1999.90;;;999.90;;
22378;SDS011;11357;49.990;7.370;2023-04-25T04:04:17;1999.90;;;999.90;;
22378;SDS011;11357;49.990;7.370;2023-04-25T04:06:43;1999.90;;;999.90;;
22378;SDS011;11357;49.990;7.370;2023-04-25T04:09:09;1999.90;;;999.90;;
22378;SDS011;11357;49.990;7.370;2023-04-25T04:11:36;1999.90;;;999.90;;
22378;SDS011;11357;49.990;7.370;2023-04-25T04:14:04;1999.90;;;999.90;;
22378;SDS011;11357;49.990;7.370;2023-04-25T04:16:31;1999.90;;;999.90;;
22378;SDS011;11357;49.990;7.370;2023-04-25T04:18:57;1999.90;;;999.90;;
22378;SDS011;11357;49.990;7.370;2023-04-25T04:21:22;1999.90;;;999.90;;
22378;SDS011;11357;49.990;7.370;2023-04-25T04:23:48;1999.90;;;999.90;;
22378;SDS011;11357;49.990;7.370;2023-04-25T04:26:14;1999.90;;;999.90;;
22378;SDS011;11357;49.990;7.370;2023-04-25T04:28:41;1999.90;;;999.90;;
22378;SDS011;11357;49.990;7.370;2023-04-25T04:31:10;1999.90;;;999.90;;
22378;SDS011;11357;49.990;7.370;2023-04-25T04:33:36;1999.90;;;999.90;;
22378;SDS011;11357;49.990;7.370;2023-04-25T04:36:02;1999.90;;;999.90;;
22378;SDS011;11357;49.990;7.370;2023-04-25T04:38:29;1999.90;;;859.37;;
22378;SDS011;11357;49.990;7.370;2023-04-25T04:40:55;1999.90;;;999.90;;
22378;SDS011;11357;49.990;7.370;2023-04-25T04:43:21;1991.00;;;870.97;;
22378;SDS011;11357;49.990;7.370;2023-04-25T04:45:48;1999.90;;;804.00;;
22378;SDS011;11357;49.990;7.370;2023-04-25T04:48:15;1999.90;;;952.93;;
22378;SDS011;11357;49.990;7.370;2023-04-25T04:50:42;1771.33;;;715.47;;
22378;SDS011;11357;49.990;7.370;2023-04-25T04:53:10;1369.63;;;657.50;;
22378;SDS011;11357;49.990;7.370;2023-04-25T04:55:36;619.67;;;450.13;;
22378;SDS011;11357;49.990;7.370;2023-04-25T04:58:01;1861.03;;;801.23;;
22378;SDS011;11357;49.990;7.370;2023-04-25T05:00:27;1950.23;;;670.90;;
22378;SDS011;11357;49.990;7.370;2023-04-25T05:02:54;1264.53;;;758.97;;
22378;SDS011;11357;49.990;7.370;2023-04-25T05:05:23;1226.70;;;723.83;;
22378;SDS011;11357;49.990;7.370;2023-04-25T05:07:49;730.13;;;630.33;;
22378;SDS011;11357;49.990;7.370;2023-04-25T05:10:16;854.80;;;607.23;;
22378;SDS011;11357;49.990;7.370;2023-04-25T05:12:42;1059.07;;;486.40;;
22378;SDS011;11357;49.990;7.370;2023-04-25T05:15:08;1253.70;;;734.80;;
22378;SDS011;11357;49.990;7.370;2023-04-25T05:17:34;1037.27;;;656.20;;
22378;SDS011;11357;49.990;7.370;2023-04-25T05:20:00;1892.63;;;803.03;;
22378;SDS011;11357;49.990;7.370;2023-04-25T05:22:25;1720.93;;;808.97;;
22378;SDS011;11357;49.990;7.370;2023-04-25T05:24:51;1157.70;;;762.07;;
22378;SDS011;11357;49.990;7.370;2023-04-25T05:27:17;1548.40;;;680.77;;
22378;SDS011;11357;49.990;7.370;2023-04-25T05:29:43;1803.80;;;617.77;;
22378;SDS011;11357;49.990;7.370;2023-04-25T05:32:09;598.43;;;528.03;;
22378;SDS011;11357;49.990;7.370;2023-04-25T05:34:36;518.80;;;357.10;;
22378;SDS011;11357;49.990;7.370;2023-04-25T05:37:01;708.17;;;498.83;;
22378;SDS011;11357;49.990;7.370;2023-04-25T05:39:27;453.77;;;407.97;;
22378;SDS011;11357;49.990;7.370;2023-04-25T05:41:53;614.83;;;557.37;;
22378;SDS011;11357;49.990;7.370;2023-04-25T05:44:19;435.33;;;396.23;;
22378;SDS011;11357;49.990;7.370;2023-04-25T05:46:46;1301.23;;;669.23;;
22378;SDS011;11357;49.990;7.370;2023-04-25T05:49:12;1093.53;;;676.73;;
22378;SDS011;11357;49.990;7.370;2023-04-25T05:51:38;1195.33;;;604.90;;
22378;SDS011;11357;49.990;7.370;2023-04-25T05:54:03;582.90;;;488.40;;
22378;SDS011;11357;49.990;7.370;2023-04-25T05:56:29;701.37;;;498.93;;
22378;SDS011;11357;49.990;7.370;2023-04-25T05:58:55;1167.70;;;698.07;;
22378;SDS011;11357;49.990;7.370;2023-04-25T06:01:22;757.80;;;611.17;;
22378;SDS011;11357;49.990;7.370;2023-04-25T06:03:48;1232.47;;;672.43;;
22378;SDS011;11357;49.990;7.370;2023-04-25T06:06:14;763.00;;;559.97;;
22378;SDS011;11357;49.990;7.370;2023-04-25T06:08:40;642.57;;;535.27;;
22378;SDS011;11357;49.990;7.370;2023-04-25T06:11:06;638.37;;;546.20;;
22378;SDS011;11357;49.990;7.370;2023-04-25T06:13:31;421.07;;;361.57;;
22378;SDS011;11357;49.990;7.370;2023-04-25T06:16:00;801.87;;;540.70;;
22378;SDS011;11357;49.990;7.370;2023-04-25T06:18:25;107.97;;;98.00;;
22378;SDS011;11357;49.990;7.370;2023-04-25T06:20:51;369.23;;;337.50;;
22378;SDS011;11357;49.990;7.370;2023-04-25T06:23:17;474.47;;;422.53;;
22378;SDS011;11357;49.990;7.370;2023-04-25T06:25:42;764.10;;;582.90;;
22378;SDS011;11357;49.990;7.370;2023-04-25T06:28:08;876.17;;;676.70;;
22378;SDS011;11357;49.990;7.370;2023-04-25T06:30:37;311.73;;;283.57;;
22378;SDS011;11357;49.990;7.370;2023-04-25T06:33:03;291.07;;;264.87;;
22378;SDS011;11357;49.990;7.370;2023-04-25T06:35:28;443.97;;;405.23;;
22378;SDS011;11357;49.990;7.370;2023-04-25T06:37:54;1220.77;;;637.30;;
22378;SDS011;11357;49.990;7.370;2023-04-25T06:40:20;1117.57;;;474.73;;
22378;SDS011;11357;49.990;7.370;2023-04-25T06:42:46;374.93;;;335.13;;
22378;SDS011;11357;49.990;7.370;2023-04-25T06:45:11;547.70;;;478.20;;
22378;SDS011;11357;49.990;7.370;2023-04-25T06:47:37;710.57;;;441.80;;
22378;SDS011;11357;49.990;7.370;2023-04-25T06:50:03;673.50;;;530.40;;
22378;SDS011;11357;49.990;7.370;2023-04-25T06:52:29;611.50;;;507.27;;
22378;SDS011;11357;49.990;7.370;2023-04-25T06:54:55;337.00;;;308.03;;
22378;SDS011;11357;49.990;7.370;2023-04-25T06:57:21;958.63;;;648.33;;
22378;SDS011;11357;49.990;7.370;2023-04-25T06:59:46;334.70;;;306.57;;
22378;SDS011;11357;49.990;7.370;2023-04-25T07:02:12;627.27;;;532.93;;
22378;SDS011;11357;49.990;7.370;2023-04-25T07:04:38;408.50;;;317.27;;
22378;SDS011;11357;49.990;7.370;2023-04-25T07:07:04;413.73;;;377.77;;
22378;SDS011;11357;49.990;7.370;2023-04-25T07:09:29;471.13;;;280.73;;
22378;SDS011;11357;49.990;7.370;2023-04-25T07:11:58;288.53;;;223.43;;
22378;SDS011;11357;49.990;7.370;2023-04-25T07:14:26;85.70;;;76.90;;
22378;SDS011;11357;49.990;7.370;2023-04-25T07:16:52;145.87;;;136.00;;
22378;SDS011;11357;49.990;7.370;2023-04-25T07:19:17;40.33;;;36.73;;
22378;SDS011;11357;49.990;7.370;2023-04-25T07:21:43;252.73;;;174.23;;
22378;SDS011;11357;49.990;7.370;2023-04-25T07:24:09;332.63;;;215.20;;
22378;SDS011;11357;49.990;7.370;2023-04-25T07:26:35;148.03;;;138.13;;
22378;SDS011;11357;49.990;7.370;2023-04-25T07:29:00;153.60;;;79.97;;
22378;SDS011;11357;49.990;7.370;2023-04-25T07:31:26;75.53;;;68.33;;
22378;SDS011;11357;49.990;7.370;2023-04-25T07:33:52;20.43;;;13.60;;
22378;SDS011;11357;49.990;7.370;2023-04-25T07:36:18;257.30;;;189.00;;
22378;SDS011;11357;49.990;7.370;2023-04-25T07:38:44;558.47;;;499.30;;
22378;SDS011;11357;49.990;7.370;2023-04-25T07:41:09;928.67;;;638.30;;
22378;SDS011;11357;49.990;7.370;2023-04-25T07:43:35;245.70;;;224.17;;
22378;SDS011;11357;49.990;7.370;2023-04-25T07:46:01;306.40;;;280.43;;
22378;SDS011;11357;49.990;7.370;2023-04-25T07:48:27;205.47;;;191.23;;
22378;SDS011;11357;49.990;7.370;2023-04-25T07:50:53;152.97;;;141.40;;
22378;SDS011;11357;49.990;7.370;2023-04-25T07:53:19;426.60;;;389.37;;
22378;SDS011;11357;49.990;7.370;2023-04-25T07:55:44;212.37;;;191.33;;
22378;SDS011;11357;49.990;7.370;2023-04-25T07:58:11;892.40;;;426.50;;
22378;SDS011;11357;49.990;7.370;2023-04-25T08:00:36;223.83;;;207.17;;
22378;SDS011;11357;49.990;7.370;2023-04-25T08:03:03;397.67;;;363.83;;
22378;SDS011;11357;49.990;7.370;2023-04-25T08:05:29;337.80;;;310.40;;
22378;SDS011;11357;49.990;7.370;2023-04-25T08:07:55;83.73;;;78.37;;
22378;SDS011;11357;49.990;7.370;2023-04-25T08:10:22;392.10;;;354.10;;
22378;SDS011;11357;49.990;7.370;2023-04-25T08:12:48;382.47;;;350.27;;
22378;SDS011;11357;49.990;7.370;2023-04-25T08:15:14;232.53;;;214.87;;
22378;SDS011;11357;49.990;7.370;2023-04-25T08:17:40;347.37;;;318.93;;
22378;SDS011;11357;49.990;7.370;2023-04-25T08:20:06;205.43;;;190.33;;
22378;SDS011;11357;49.990;7.370;2023-04-25T08:22:32;172.70;;;156.00;;
22378;SDS011;11357;49.990;7.370;2023-04-25T08:24:58;117.40;;;108.97;;
22378;SDS011;11357;49.990;7.370;2023-04-25T08:27:24;230.40;;;213.00;;
22378;SDS011;11357;49.990;7.370;2023-04-25T08:29:50;427.33;;;389.57;;
22378;SDS011;11357;49.990;7.370;2023-04-25T08:32:16;102.73;;;91.43;;
22378;SDS011;11357;49.990;7.370;2023-04-25T08:34:42;321.37;;;297.67;;
22378;SDS011;11357;49.990;7.370;2023-04-25T08:37:09;603.03;;;194.30;;
22378;SDS011;11357;49.990;7.370;2023-04-25T08:39:35;227.00;;;210.40;;
22378;SDS011;11357;49.990;7.370;2023-04-25T08:42:05;208.20;;;194.57;;
22378;SDS011;11357;49.990;7.370;2023-04-25T08:44:35;306.47;;;284.73;;
22378;SDS011;11357;49.990;7.370;2023-04-25T08:47:02;245.87;;;228.70;;
22378;SDS011;11357;49.990;7.370;2023-04-25T08:49:32;176.53;;;162.53;;
22378;SDS011;11357;49.990;7.370;2023-04-25T08:52:00;127.43;;;119.93;;
22378;SDS011;11357;49.990;7.370;2023-04-25T08:54:27;37.87;;;34.37;;
22378;SDS011;11357;49.990;7.370;2023-04-25T08:56:54;28.40;;;25.93;;
22378;SDS011;11357;49.990;7.370;2023-04-25T08:59:22;14.13;;;11.03;;
22378;SDS011;11357;49.990;7.370;2023-04-25T09:01:51;13.97;;;10.43;;
22378;SDS011;11357;49.990;7.370;2023-04-25T09:04:20;11.50;;;5.57;;
22378;SDS011;11357;49.990;7.370;2023-04-25T09:06:46;13.80;;;6.70;;
22378;SDS011;11357;49.990;7.370;2023-04-25T09:09:13;10.97;;;5.50;;
22378;SDS011;11357;49.990;7.370;2023-04-25T09:11:39;11.37;;;5.57;;
22378;SDS011;11357;49.990;7.370;2023-04-25T09:14:12;22.73;;;10.80;;
22378;SDS011;11357;49.990;7.370;2023-04-25T09:16:56;22.90;;;18.07;;
22378;SDS011;11357;49.990;7.370;2023-04-25T09:19:27;16.97;;;7.33;;
22378;SDS011;11357;49.990;7.370;2023-04-25T09:21:57;17.50;;;8.00;;
22378;SDS011;11357;49.990;7.370;2023-04-25T09:27:11;13.70;;;9.27;;
22378;SDS011;11357;49.990;7.370;2023-04-25T09:29:42;11.67;;;5.53;;
22378;SDS011;11357;49.990;7.370;2023-04-25T09:32:24;43.97;;;28.60;;
22378;SDS011;11357;49.990;7.370;2023-04-25T09:34:51;11.67;;;6.50;;
22378;SDS011;11357;49.990;7.370;2023-04-25T09:37:20;11.03;;;5.80;;
22378;SDS011;11357;49.990;7.370;2023-04-25T09:39:48;17.13;;;14.40;;
22378;SDS011;11357;49.990;7.370;2023-04-25T09:42:15;19.83;;;16.43;;
22378;SDS011;11357;49.990;7.370;2023-04-25T09:44:45;11.93;;;6.47;;
22378;SDS011;11357;49.990;7.370;2023-04-25T09:47:12;15.10;;;7.77;;
22378;SDS011;11357;49.990;7.370;2023-04-25T09:49:40;17.13;;;7.33;;
22378;SDS011;11357;49.990;7.370;2023-04-25T09:52:08;13.17;;;7.27;;
22378;SDS011;11357;49.990;7.370;2023-04-25T09:54:34;20.17;;;9.37;;
22378;SDS011;11357;49.990;7.370;2023-04-25T09:57:07;13.20;;;8.03;;
22378;SDS011;11357;49.990;7.370;2023-04-25T09:59:42;16.53;;;7.57;;
22378;SDS011;11357;49.990;7.370;2023-04-25T10:02:19;18.30;;;5.73;;
22378;SDS011;11357;49.990;7.370;2023-04-25T10:04:50;15.03;;;5.57;;
22378;SDS011;11357;49.990;7.370;2023-04-25T10:07:19;18.57;;;16.90;;
22378;SDS011;11357;49.990;7.370;2023-04-25T10:09:54;12.20;;;5.67;;
22378;SDS011;11357;49.990;7.370;2023-04-25T10:12:30;13.83;;;5.80;;
22378;SDS011;11357;49.990;7.370;2023-04-25T10:14:57;16.37;;;5.23;;
22378;SDS011;11357;49.990;7.370;2023-04-25T10:17:23;11.97;;;4.93;;
22378;SDS011;11357;49.990;7.370;2023-04-25T10:19:52;18.97;;;5.20;;
22378;SDS011;11357;49.990;7.370;2023-04-25T10:22:35;11.37;;;4.73;;
22378;SDS011;11357;49.990;7.370;2023-04-25T10:25:04;12.10;;;4.10;;
22378;SDS011;11357;49.990;7.370;2023-04-25T10:27:31;15.40;;;4.97;;
22378;SDS011;11357;49.990;7.370;2023-04-25T10:30:15;11.77;;;4.37;;
22378;SDS011;11357;49.990;7.370;2023-04-25T10:32:41;12.90;;;4.37;;
22378;SDS011;11357;49.990;7.370;2023-04-25T10:35:15;15.67;;;4.83;;
22378;SDS011;11357;49.990;7.370;2023-04-25T10:38:23;11.73;;;4.50;;
22378;SDS011;11357;49.990;7.370;2023-04-25T10:40:30;11.87;;;4.33;;
22378;SDS011;11357;49.990;7.370;2023-04-25T10:43:33;14.13;;;4.03;;
22378;SDS011;11357;49.990;7.370;2023-04-25T10:46:23;13.07;;;4.47;;
22378;SDS011;11357;49.990;7.370;2023-04-25T10:48:58;14.57;;;4.77;;
22378;SDS011;11357;49.990;7.370;2023-04-25T10:51:26;15.77;;;4.47;;
22378;SDS011;11357;49.990;7.370;2023-04-25T10:56:23;11.80;;;4.30;;
22378;SDS011;11357;49.990;7.370;2023-04-25T11:01:56;12.40;;;4.10;;
22378;SDS011;11357;49.990;7.370;2023-04-25T11:09:47;12.17;;;3.73;;
22378;SDS011;11357;49.990;7.370;2023-04-25T11:12:14;17.70;;;4.30;;
22378;SDS011;11357;49.990;7.370;2023-04-25T11:14:41;12.53;;;4.10;;
22378;SDS011;11357;49.990;7.370;2023-04-25T11:17:07;9.00;;;3.33;;
22378;SDS011;11357;49.990;7.370;2023-04-25T11:19:33;14.20;;;3.50;;
22378;SDS011;11357;49.990;7.370;2023-04-25T11:22:00;7.97;;;3.37;;
22378;SDS011;11357;49.990;7.370;2023-04-25T11:24:28;17.30;;;3.47;;
22378;SDS011;11357;49.990;7.370;2023-04-25T11:26:58;11.73;;;3.20;;
22378;SDS011;11357;49.990;7.370;2023-04-25T11:29:28;11.50;;;3.70;;
22378;SDS011;11357;49.990;7.370;2023-04-25T11:31:55;9.60;;;3.23;;
22378;SDS011;11357;49.990;7.370;2023-04-25T11:34:25;11.93;;;3.10;;
22378;SDS011;11357;49.990;7.370;2023-04-25T11:36:53;11.97;;;3.20;;
22378;SDS011;11357;49.990;7.370;2023-04-25T11:39:19;10.07;;;3.23;;
22378;SDS011;11357;49.990;7.370;2023-04-25T11:41:45;9.57;;;3.40;;
22378;SDS011;11357;49.990;7.370;2023-04-25T11:44:12;9.13;;;3.97;;
22378;SDS011;11357;49.990;7.370;2023-04-25T11:46:41;9.73;;;3.20;;
22378;SDS011;11357;49.990;7.370;2023-04-25T11:49:08;10.30;;;3.00;;
22378;SDS011;11357;49.990;7.370;2023-04-25T11:51:44;9.57;;;2.93;;
22378;SDS011;11357;49.990;7.370;2023-04-25T11:54:11;9.43;;;3.00;;
22378;SDS011;11357;49.990;7.370;2023-04-25T11:56:40;13.83;;;3.47;;
22378;SDS011;11357;49.990;7.370;2023-04-25T12:01:54;13.60;;;3.00;;
22378;SDS011;11357;49.990;7.370;2023-04-25T12:06:48;9.67;;;2.83;;
22378;SDS011;11357;49.990;7.370;2023-04-25T12:09:16;11.33;;;2.70;;
22378;SDS011;11357;49.990;7.370;2023-04-25T12:11:47;7.87;;;2.83;;
22378;SDS011;11357;49.990;7.370;2023-04-25T12:14:21;5.10;;;2.57;;
22378;SDS011;11357;49.990;7.370;2023-04-25T12:16:55;10.67;;;2.57;;
22378;SDS011;11357;49.990;7.370;2023-04-25T12:19:23;7.50;;;2.60;;
22378;SDS011;11357;49.990;7.370;2023-04-25T12:21:49;9.27;;;3.20;;
22378;SDS011;11357;49.990;7.370;2023-04-25T12:24:16;12.47;;;2.90;;
22378;SDS011;11357;49.990;7.370;2023-04-25T12:26:50;12.53;;;3.47;;
22378;SDS011;11357;49.990;7.370;2023-04-25T12:29:24;5.83;;;2.67;;
22378;SDS011;11357;49.990;7.370;2023-04-25T12:31:52;8.87;;;2.87;;
22378;SDS011;11357;49.990;7.370;2023-04-25T12:34:20;7.50;;;3.17;;
22378;SDS011;11357;49.990;7.370;2023-04-25T12:36:47;9.17;;;2.63;;
22378;SDS011;11357;49.990;7.370;2023-04-25T12:39:23;11.63;;;2.80;;
22378;SDS011;11357;49.990;7.370;2023-04-25T12:41:53;6.30;;;2.57;;
22378;SDS011;11357;49.990;7.370;2023-04-25T12:44:19;9.77;;;2.90;;
22378;SDS011;11357;49.990;7.370;2023-04-25T12:46:46;7.27;;;2.67;;
22378;SDS011;11357;49.990;7.370;2023-04-25T12:49:12;9.17;;;2.67;;
22378;SDS011;11357;49.990;7.370;2023-04-25T12:51:38;12.20;;;2.80;;
22378;SDS011;11357;49.990;7.370;2023-04-25T12:54:04;6.13;;;2.40;;
22378;SDS011;11357;49.990;7.370;2023-04-25T12:56:34;7.77;;;2.83;;
22378;SDS011;11357;49.990;7.370;2023-04-25T12:59:01;5.30;;;2.40;;
22378;SDS011;11357;49.990;7.370;2023-04-25T13:01:30;4.97;;;2.27;;
22378;SDS011;11357;49.990;7.370;2023-04-25T13:03:55;11.17;;;2.83;;
22378;SDS011;11357;49.990;7.370;2023-04-25T13:06:21;8.10;;;2.37;;
22378;SDS011;11357;49.990;7.370;2023-04-25T13:08:47;6.07;;;2.40;;
22378;SDS011;11357;49.990;7.370;2023-04-25T13:11:13;11.30;;;2.70;;
22378;SDS011;11357;49.990;7.370;2023-04-25T13:13:42;6.77;;;2.77;;
22378;SDS011;11357;49.990;7.370;2023-04-25T13:16:08;6.27;;;2.70;;
22378;SDS011;11357;49.990;7.370;2023-04-25T13:21:06;10.17;;;2.80;;
22378;SDS011;11357;49.990;7.370;2023-04-25T13:23:37;6.17;;;2.30;;
22378;SDS011;11357;49.990;7.370;2023-04-25T13:26:02;6.43;;;2.37;;
22378;SDS011;11357;49.990;7.370;2023-04-25T13:28:28;6.87;;;2.20;;
22378;SDS011;11357;49.990;7.370;2023-04-25T13:30:54;6.17;;;2.50;;
22378;SDS011;11357;49.990;7.370;2023-04-25T13:33:20;5.97;;;2.30;;
22378;SDS011;11357;49.990;7.370;2023-04-25T13:35:47;5.40;;;2.27;;
22378;SDS011;11357;49.990;7.370;2023-04-25T13:38:21;5.73;;;2.10;;
22378;SDS011;11357;49.990;7.370;2023-04-25T13:40:48;8.13;;;2.37;;
22378;SDS011;11357;49.990;7.370;2023-04-25T13:43:14;6.73;;;2.13;;
22378;SDS011;11357;49.990;7.370;2023-04-25T13:45:40;5.30;;;2.00;;
22378;SDS011;11357;49.990;7.370;2023-04-25T13:48:06;7.33;;;2.23;;
22378;SDS011;11357;49.990;7.370;2023-04-25T13:50:31;8.10;;;2.30;;
22378;SDS011;11357;49.990;7.370;2023-04-25T13:52:57;5.97;;;1.90;;
22378;SDS011;11357;49.990;7.370;2023-04-25T13:55:23;8.80;;;2.20;;
22378;SDS011;11357;49.990;7.370;2023-04-25T13:57:49;6.13;;;2.20;;
22378;SDS011;11357;49.990;7.370;2023-04-25T14:00:14;7.70;;;2.60;;
22378;SDS011;11357;49.990;7.370;2023-04-25T14:02:40;11.47;;;3.03;;
22378;SDS011;11357;49.990;7.370;2023-04-25T14:05:06;8.97;;;2.73;;
22378;SDS011;11357;49.990;7.370;2023-04-25T14:07:36;4.33;;;2.07;;
22378;SDS011;11357;49.990;7.370;2023-04-25T14:10:02;7.73;;;2.57;;
22378;SDS011;11357;49.990;7.370;2023-04-25T14:12:30;4.80;;;2.00;;
22378;SDS011;11357;49.990;7.370;2023-04-25T14:14:57;7.50;;;2.63;;
22378;SDS011;11357;49.990;7.370;2023-04-25T14:17:23;4.73;;;1.90;;
22378;SDS011;11357;49.990;7.370;2023-04-25T14:19:49;6.80;;;2.47;;
22378;SDS011;11357;49.990;7.370;2023-04-25T14:22:15;10.17;;;2.53;;
22378;SDS011;11357;49.990;7.370;2023-04-25T14:24:41;7.53;;;2.60;;
22378;SDS011;11357;49.990;7.370;2023-04-25T14:27:07;8.60;;;3.27;;